Time;durP1;ratioP1;P1;durP2;ratioP2;P2;SDS_P1;SDS_P2;PMS_P1;PMS_P2;Temp;Humidity;BMP_temperature;BMP_pressure;BME280_temperature;BME280_humidity;BME280_pressure;Samples;Min_cycle;Max_cycle;Signal;HPM_P1;HPM_P2
2021/06/10 00:01:55;;;;;;;0.70;0.60;;;16.00;99.90;;;16.42;100.00;-21127.72;5058017;28;20530;-80
2021/06/10 00:04:22;;;;;;;0.80;0.70;;;15.90;99.90;;;16.34;100.00;-21125.53;5056971;28;20800;-80
2021/06/10 00:06:50;;;;;;;0.80;0.70;;;15.90;99.90;;;16.31;100.00;-21124.56;5053776;28;20543;-80
2021/06/10 00:09:18;;;;;;;0.80;0.60;;;15.80;99.90;;;16.26;100.00;-21123.31;5054762;28;20452;-80
2021/06/10 00:11:45;;;;;;;1.33;1.23;;;15.80;99.90;;;16.23;100.00;-21122.50;5060288;28;20447;-80
2021/06/10 00:14:14;;;;;;;0.80;0.70;;;15.70;99.90;;;16.16;100.00;-20239.41;5054332;28;20445;-81
2021/06/10 00:16:44;;;;;;;0.70;0.60;;;15.70;99.90;;;16.11;100.00;-18597.50;5053564;28;20424;-78
2021/06/10 00:19:13;;;;;;;0.80;0.70;;;15.60;99.90;;;16.05;100.00;-16466.59;5038004;28;20544;-82
2021/06/10 00:21:41;;;;;;;0.80;0.60;;;15.60;99.90;;;16.02;100.00;-13925.00;5063191;28;20530;-80
2021/06/10 00:24:10;;;;;;;0.70;0.60;;;15.60;99.90;;;15.98;100.00;-11333.50;5075179;28;20562;-80
2021/06/10 00:26:38;;;;;;;0.80;0.70;;;15.50;99.90;;;15.92;100.00;-9414.56;5064333;28;20467;-79
2021/06/10 00:29:06;;;;;;;0.80;0.67;;;15.50;99.90;;;15.88;100.00;-7920.94;5054567;28;21022;-79
2021/06/10 00:31:35;;;;;;;0.80;0.70;;;15.40;99.90;;;15.86;100.00;-6746.53;5068027;28;20475;-80
2021/06/10 00:34:05;;;;;;;0.70;0.60;;;15.40;99.90;;;15.84;100.00;-5830.59;5074087;28;20790;-79
2021/06/10 00:36:33;;;;;;;0.73;0.63;;;15.30;99.90;;;15.83;100.00;-4998.22;5073019;28;20831;-80
2021/06/10 00:39:00;;;;;;;0.80;0.70;;;15.30;99.90;;;15.81;100.00;-4389.03;5057689;28;20521;-79
2021/06/10 00:41:32;;;;;;;0.80;0.60;;;15.30;99.90;;;15.78;100.00;-3825.50;5073820;28;20505;-79
2021/06/10 00:44:00;;;;;;;0.70;0.60;;;15.20;99.90;;;15.76;100.00;-3297.44;5072630;28;20484;-80
2021/06/10 00:46:28;;;;;;;0.80;0.70;;;15.20;99.90;;;15.74;100.00;-3241.63;5073563;28;20483;-78
2021/06/10 00:48:56;;;;;;;0.80;0.70;;;15.20;99.90;;;15.70;100.00;-3170.59;5087693;28;20443;-78
2021/06/10 00:51:25;;;;;;;0.80;0.70;;;15.20;99.90;;;15.72;100.00;-3165.47;5073331;28;20447;-79
2021/06/10 00:53:53;;;;;;;0.77;0.63;;;15.20;99.90;;;15.67;100.00;-3193.50;5074336;28;20987;-81
2021/06/10 00:56:22;;;;;;;0.73;0.70;;;15.10;99.90;;;15.66;100.00;-3051.34;5064213;28;20799;-79
2021/06/10 00:58:49;;;;;;;0.80;0.70;;;15.10;99.90;;;15.62;100.00;-2817.84;5036704;28;21237;-80
2021/06/10 01:01:17;;;;;;;0.70;0.70;;;15.10;99.90;;;15.66;100.00;-2624.81;5036059;28;20465;-80
2021/06/10 01:03:45;;;;;;;0.80;0.70;;;15.00;99.90;;;15.66;100.00;-2342.94;5058580;28;20452;-80
2021/06/10 01:06:26;;;;;;;0.70;0.60;;;15.10;99.90;;;15.71;100.00;-2083.75;5056824;28;20970;-80
2021/06/10 01:09:02;;;;;;;0.70;0.60;;;15.10;99.90;;;15.74;100.00;-2281.78;5055947;28;20474;-80
2021/06/10 01:11:42;;;;;;;0.70;0.60;;;15.10;99.90;;;15.77;100.00;-2495.00;5074619;28;20410;-80
2021/06/10 01:14:19;;;;;;;0.70;0.60;;;15.20;99.90;;;15.83;100.00;-2098.56;5073445;28;20430;-80
2021/06/10 01:16:49;;;;;;;0.70;0.70;;;15.20;99.90;;;15.83;100.00;-1676.88;5069582;28;20427;-80
2021/06/10 01:19:26;;;;;;;0.70;0.60;;;15.30;99.90;;;15.86;100.00;-1623.41;5055305;28;20455;-80
2021/06/10 01:22:01;;;;;;;0.70;0.60;;;15.30;99.90;;;15.98;100.00;-1788.06;5053309;28;20465;-80
2021/06/10 01:24:44;;;;;;;0.70;0.60;;;15.40;99.90;;;16.10;100.00;-2214.56;5054299;28;20439;-80
2021/06/10 01:27:25;;;;;;;0.70;0.60;;;15.40;99.90;;;16.25;100.00;-2892.66;5070992;28;20501;-78
2021/06/10 01:29:59;;;;;;;0.70;0.60;;;15.50;99.90;;;16.39;100.00;-3128.75;5041164;28;20435;-81
2021/06/10 01:32:29;;;;;;;0.70;0.60;;;15.70;99.90;;;16.56;100.00;-3898.69;5052996;28;20411;-80
2021/06/10 01:34:57;;;;;;;0.70;0.60;;;15.80;99.90;;;16.69;100.00;-5324.53;5054198;28;20439;-80
2021/06/10 01:37:27;;;;;;;0.80;0.70;;;15.90;99.90;;;16.70;100.00;-6396.78;5057240;28;21059;-80
2021/06/10 01:39:57;;;;;;;0.70;0.60;;;16.00;99.90;;;16.67;100.00;-7610.72;5054266;28;20460;-82
2021/06/10 01:42:27;;;;;;;0.70;0.70;;;16.00;99.90;;;16.65;100.00;-9128.75;5061565;28;20530;-80
2021/06/10 01:44:56;;;;;;;0.70;0.60;;;16.00;99.90;;;16.52;100.00;-10167.94;5055945;28;20450;-81
2021/06/10 01:47:26;;;;;;;0.70;0.60;;;16.00;99.90;;;16.37;100.00;-11748.69;5055886;28;20943;-80
2021/06/10 01:49:55;;;;;;;0.70;0.60;;;15.90;99.90;;;16.27;100.00;-13566.75;5053736;28;20820;-80
2021/06/10 01:52:25;;;;;;;0.70;0.70;;;15.80;99.90;;;16.16;100.00;-15337.50;5051878;28;20434;-78
2021/06/10 01:54:55;;;;;;;0.80;0.70;;;15.70;99.90;;;15.99;100.00;-16779.06;5034657;28;20443;-81
2021/06/10 01:57:28;;;;;;;0.70;0.60;;;15.60;99.90;;;15.93;100.00;-17839.94;5052523;28;20440;-80
2021/06/10 01:59:56;;;;;;;0.80;0.70;;;15.50;99.90;;;15.83;100.00;-18388.88;5036784;28;20457;-79
2021/06/10 02:02:24;;;;;;;0.70;0.60;;;15.40;99.90;;;15.75;100.00;-18478.00;5052276;28;20475;-79
2021/06/10 02:04:53;;;;;;;0.77;0.63;;;15.30;99.90;;;15.64;100.00;-17396.38;5052715;28;20983;-79
2021/06/10 02:07:22;;;;;;;0.77;0.70;;;15.20;99.90;;;15.53;100.00;-15632.25;5041061;28;21011;-79
2021/06/10 02:09:50;;;;;;;0.70;0.60;;;15.10;99.90;;;15.48;100.00;-13296.81;5072397;28;20445;-80
2021/06/10 02:12:18;;;;;;;0.80;0.70;;;15.10;99.90;;;15.41;100.00;-10729.69;5071210;28;20532;-77
2021/06/10 02:14:48;;;;;;;0.70;0.60;;;15.00;99.90;;;15.34;100.00;-8850.00;5070385;28;20784;-80
2021/06/10 02:17:17;;;;;;;0.70;0.70;;;14.90;99.90;;;15.28;100.00;-7420.78;5048693;28;20453;-79
2021/06/10 02:19:45;;;;;;;0.70;0.60;;;14.80;99.90;;;15.22;100.00;-6158.50;5054992;28;20462;-80
2021/06/10 02:22:13;;;;;;;0.70;0.60;;;14.80;99.90;;;15.19;100.00;-5575.41;5051821;28;20447;-79
2021/06/10 02:24:40;;;;;;;0.80;0.70;;;14.70;99.90;;;15.16;100.00;-5542.41;5035561;28;20454;-79
2021/06/10 02:27:08;;;;;;;0.70;0.60;;;14.70;99.90;;;15.22;100.00;-5418.31;5061552;28;20435;-78
2021/06/10 02:29:37;;;;;;;0.70;0.60;;;14.70;99.90;;;15.31;100.00;-5342.41;5065008;28;20455;-78
2021/06/10 02:32:08;;;;;;;0.70;0.60;;;14.70;99.90;;;15.34;100.00;-5674.63;5052222;28;20902;-79
2021/06/10 02:34:36;;;;;;;0.80;0.70;;;14.70;99.90;;;15.46;100.00;-5918.38;5059527;28;20428;-80
2021/06/10 02:37:06;;;;;;;0.70;0.70;;;14.70;99.90;;;15.54;100.00;-6291.34;5053321;28;20449;-80
2021/06/10 02:39:38;;;;;;;0.70;0.60;;;14.80;99.90;;;15.56;100.00;-6529.75;5058653;28;20994;-81
2021/06/10 02:42:10;;;;;;;0.70;0.60;;;14.90;99.90;;;15.51;100.00;-6803.41;5067220;28;20534;-79
2021/06/10 02:44:41;;;;;;;0.70;0.60;;;14.90;99.90;;;15.46;100.00;-6666.31;5062222;28;20450;-80
2021/06/10 02:47:11;;;;;;;0.80;0.70;;;14.90;99.90;;;15.38;100.00;-6729.38;5069831;28;20938;-80
2021/06/10 02:49:44;;;;;;;0.80;0.70;;;14.90;99.90;;;15.26;100.00;-7395.34;5071374;28;20434;-80
2021/06/10 02:52:14;;;;;;;0.70;0.70;;;14.80;99.90;;;15.18;100.00;-7721.75;5060932;28;20461;-80
2021/06/10 02:54:43;;;;;;;0.70;0.60;;;14.70;99.90;;;15.12;100.00;-7531.41;5058747;28;20467;-80
2021/06/10 02:57:12;;;;;;;0.80;0.70;;;14.60;99.90;;;15.06;100.00;-7272.72;5053005;28;20514;-80
2021/06/10 02:59:43;;;;;;;0.70;0.60;;;14.60;99.90;;;14.93;100.00;-7727.94;5052894;28;20475;-80
2021/06/10 03:02:14;;;;;;;0.80;0.70;;;14.50;99.90;;;14.87;100.00;-7813.69;5055874;28;20423;-80
2021/06/10 03:04:45;;;;;;;0.70;0.70;;;14.40;99.90;;;14.78;100.00;-8167.53;5071789;28;20442;-80
2021/06/10 03:07:14;;;;;;;0.70;0.70;;;14.30;99.90;;;14.74;100.00;-8390.03;5050419;28;20451;-79
2021/06/10 03:09:45;;;;;;;0.70;0.60;;;14.30;99.90;;;14.72;100.00;-8541.72;5052910;28;20441;-80
2021/06/10 03:12:17;;;;;;;0.70;0.60;;;14.20;99.90;;;14.65;100.00;-9226.88;5069635;28;20430;-80
2021/06/10 03:14:46;;;;;;;0.70;0.70;;;14.20;99.90;;;14.59;100.00;-9691.81;5085858;28;20491;-80
2021/06/10 03:17:17;;;;;;;0.70;0.60;;;14.10;99.90;;;14.53;100.00;-10490.34;5054714;28;20470;-80
2021/06/10 03:19:45;;;;;;;0.70;0.63;;;14.10;99.90;;;14.46;100.00;-11152.03;5058368;28;20510;-79
2021/06/10 03:22:13;;;;;;;0.70;0.60;;;14.00;99.90;;;14.41;100.00;-11856.47;5051929;28;20438;-79
2021/06/10 03:24:43;;;;;;;0.77;0.60;;;13.90;99.90;;;14.40;100.00;-12500.72;5050782;28;20893;-79
2021/06/10 03:27:12;;;;;;;0.80;0.70;;;13.90;99.90;;;14.41;100.00;-13099.47;5051101;28;20425;-80
2021/06/10 03:29:40;;;;;;;0.70;0.60;;;13.80;99.90;;;14.35;100.00;-13682.03;5055099;28;20944;-80
2021/06/10 03:32:09;;;;;;;0.70;0.60;;;13.80;99.90;;;14.30;100.00;-14110.50;5055136;28;20454;-81
2021/06/10 03:34:38;;;;;;;0.70;0.60;;;13.80;99.90;;;14.32;100.00;-14643.50;5067524;28;20813;-80
2021/06/10 03:37:07;;;;;;;0.80;0.70;;;13.70;99.90;;;14.29;100.00;-15147.69;5063181;28;20828;-80
2021/06/10 03:39:37;;;;;;;0.80;0.70;;;13.70;99.90;;;14.32;100.00;-15653.00;5075356;28;20569;-79
2021/06/10 03:42:08;;;;;;;0.70;0.60;;;13.70;99.90;;;14.31;100.00;-16207.94;5070641;28;20439;-80
2021/06/10 03:44:36;;;;;;;0.70;0.60;;;13.70;99.90;;;14.30;100.00;-16692.13;5073494;28;20437;-80
2021/06/10 03:47:04;;;;;;;0.70;0.70;;;13.70;99.90;;;14.27;100.00;-17186.00;5071546;28;21014;-81
2021/06/10 03:49:33;;;;;;;0.70;0.70;;;13.70;99.90;;;14.25;100.00;-17710.22;5073651;28;20451;-80
2021/06/10 03:52:02;;;;;;;0.73;0.70;;;13.70;99.90;;;14.33;100.00;-18130.50;5075181;28;20411;-80
2021/06/10 03:54:31;;;;;;;0.70;0.70;;;13.70;99.90;;;14.34;100.00;-18629.88;5062273;28;20469;-81
2021/06/10 03:56:59;;;;;;;0.70;0.60;;;13.70;99.90;;;14.41;100.00;-19045.16;5074097;28;20464;-81
2021/06/10 03:59:26;;;;;;;0.80;0.77;;;13.70;99.90;;;14.43;100.00;-19403.66;5073175;28;20468;-82
2021/06/10 04:01:54;;;;;;;0.80;0.70;;;13.80;99.90;;;14.46;100.00;-19764.78;5072389;28;20435;-82
2021/06/10 04:04:23;;;;;;;0.70;0.70;;;13.80;99.90;;;14.46;100.00;-20089.97;5073399;28;20431;-82
2021/06/10 04:06:53;;;;;;;0.70;0.70;;;13.80;99.90;;;14.48;100.00;-20335.13;5074212;28;20953;-82
2021/06/10 04:09:22;;;;;;;1.63;0.80;;;13.80;99.90;;;14.52;100.00;-20555.22;5074114;28;20459;-81
2021/06/10 04:11:49;;;;;;;0.80;0.70;;;13.90;99.90;;;14.56;100.00;-20707.66;5065391;28;20951;-82
2021/06/10 04:14:19;;;;;;;0.70;0.63;;;13.90;99.90;;;14.57;100.00;-20841.53;5062039;28;20950;-79
2021/06/10 04:16:46;;;;;;;0.70;0.70;;;13.90;99.90;;;14.60;100.00;-20940.50;5053759;28;20486;-81
2021/06/10 04:19:14;;;;;;;0.80;0.70;;;13.90;99.90;;;14.63;100.00;-21034.59;5070289;28;20455;-81
2021/06/10 04:21:42;;;;;;;0.70;0.70;;;13.90;99.90;;;14.72;100.00;-21081.81;5054618;28;20425;-80
2021/06/10 04:24:10;;;;;;;0.70;0.60;;;14.00;99.90;;;14.74;100.00;-21082.50;5055401;28;20445;-80
2021/06/10 04:26:38;;;;;;;0.70;0.70;;;14.00;99.90;;;14.83;100.00;-21084.69;5071038;28;20945;-82
2021/06/10 04:29:06;;;;;;;0.70;0.60;;;14.10;99.90;;;14.97;100.00;-21088.69;5055220;28;20432;-83
2021/06/10 04:31:34;;;;;;;0.70;0.70;;;14.20;99.90;;;15.08;100.00;-21059.41;5070762;28;20428;-82
2021/06/10 04:34:02;;;;;;;0.77;0.70;;;14.30;99.90;;;15.08;100.00;-21089.53;5054883;28;20441;-82
2021/06/10 04:36:30;;;;;;;0.80;0.70;;;14.40;99.90;;;15.07;100.00;-21086.75;5070190;28;20439;-81
2021/06/10 04:38:58;;;;;;;0.70;0.70;;;14.40;99.90;;;15.01;100.00;-21089.50;5069793;28;20455;-81
2021/06/10 04:41:26;;;;;;;0.70;0.60;;;14.40;99.90;;;15.08;100.00;-21091.44;5054912;28;20455;-82
2021/06/10 04:43:57;;;;;;;0.70;0.60;;;14.40;99.90;;;15.14;100.00;-21093.09;5058184;28;20934;-81
2021/06/10 04:46:27;;;;;;;0.70;0.63;;;14.50;99.90;;;15.19;100.00;-21094.59;5069507;28;20454;-82
2021/06/10 04:48:56;;;;;;;0.80;0.70;;;14.50;99.90;;;15.24;100.00;-21095.84;5073818;28;20443;-81
2021/06/10 04:51:25;;;;;;;0.80;0.77;;;14.60;99.90;;;15.30;100.00;-21097.50;5073687;28;20519;-80
2021/06/10 04:53:53;;;;;;;0.70;0.60;;;14.60;99.90;;;15.35;100.00;-21098.88;5090026;28;20457;-79
2021/06/10 04:56:21;;;;;;;0.80;0.70;;;14.70;99.90;;;15.38;100.00;-21099.69;5074203;28;20463;-80
2021/06/10 04:58:49;;;;;;;0.80;0.70;;;14.70;99.90;;;15.45;100.00;-21101.63;5056906;28;20440;-82
2021/06/10 05:01:18;;;;;;;0.70;0.70;;;14.80;99.90;;;15.55;100.00;-21104.22;5056023;28;20475;-81
2021/06/10 05:03:46;;;;;;;0.70;0.60;;;14.80;99.90;;;15.64;100.00;-21106.56;5073524;28;20480;-81
2021/06/10 05:06:14;;;;;;;0.97;0.97;;;14.90;99.90;;;15.76;100.00;-21097.72;5072925;28;20540;-79
2021/06/10 05:08:41;;;;;;;0.70;0.60;;;15.00;99.90;;;15.85;100.00;-21047.31;5073208;28;20540;-79
2021/06/10 05:11:09;;;;;;;0.70;0.60;;;15.10;99.90;;;15.96;100.00;-20979.31;5073413;28;20430;-79
2021/06/10 05:13:38;;;;;;;0.70;0.60;;;15.20;99.90;;;16.06;100.00;-20886.03;5073043;28;20508;-78
2021/06/10 05:16:06;;;;;;;0.70;0.60;;;15.30;99.90;;;16.17;100.00;-20787.94;5074330;28;20418;-79
2021/06/10 05:18:35;;;;;;;0.70;0.60;;;15.40;99.90;;;16.30;100.00;-20627.13;5074084;28;20423;-81
2021/06/10 05:21:08;;;;;;;0.70;0.70;;;15.50;99.90;;;16.41;100.00;-20493.56;5056915;28;20880;-80
2021/06/10 05:23:38;;;;;;;0.70;0.60;;;15.60;99.90;;;16.58;100.00;-20305.72;5073085;28;20481;-81
2021/06/10 05:26:06;;;;;;;0.70;0.60;;;15.80;99.90;;;16.71;100.00;-20106.59;5073284;28;20419;-80
2021/06/10 05:28:34;;;;;;;0.80;0.70;;;15.90;99.90;;;17.02;100.00;-19972.59;5072564;28;20479;-81
2021/06/10 05:31:04;;;;;;;0.70;0.60;;;16.10;99.90;;;17.21;100.00;-19800.22;5081556;28;20479;-81
2021/06/10 05:33:32;;;;;;;0.70;0.60;;;16.30;99.90;;;17.44;100.00;-19598.19;5046372;28;20481;-81
2021/06/10 05:36:01;;;;;;;0.77;0.60;;;16.50;99.90;;;17.62;100.00;-19508.78;5069485;28;20944;-80
2021/06/10 05:38:29;;;;;;;0.80;0.70;;;16.70;99.90;;;17.69;100.00;-19317.78;5053640;28;20469;-81
2021/06/10 05:40:57;;;;;;;0.70;0.60;;;16.90;99.90;;;17.75;100.00;-19359.94;5072459;28;20538;-82
2021/06/10 05:43:24;;;;;;;0.70;0.60;;;17.00;99.90;;;17.81;100.00;-19779.50;5036257;28;20812;-82
2021/06/10 05:45:53;;;;;;;0.80;0.70;;;17.10;99.90;;;17.98;100.00;-21169.44;5052296;28;20476;-83
2021/06/10 05:48:20;;;;;;;0.70;0.60;;;17.20;99.90;;;18.09;100.00;-21172.56;5053399;28;20914;-81
2021/06/10 05:50:48;;;;;;;0.80;0.60;;;17.40;99.90;;;18.26;100.00;-21177.09;5036045;28;20431;-83
2021/06/10 05:53:17;;;;;;;0.80;0.67;;;17.50;99.90;;;18.37;100.00;-21179.84;5051867;28;20535;-82
2021/06/10 05:55:46;;;;;;;0.70;0.60;;;17.70;99.90;;;18.50;100.00;-21183.41;5070041;28;20790;-82
2021/06/10 05:58:14;;;;;;;0.70;0.60;;;17.80;99.90;;;18.57;100.00;-21185.31;5056223;28;20440;-81
2021/06/10 06:00:42;;;;;;;0.70;0.60;;;17.80;99.90;;;18.82;100.00;-21192.03;5071918;28;20467;-83
2021/06/10 06:03:12;;;;;;;0.70;0.60;;;18.00;99.90;;;18.91;100.00;-21194.50;5073597;28;20509;-82
2021/06/10 06:05:39;;;;;;;0.80;0.70;;;18.20;99.90;;;18.98;100.00;-21196.25;5070389;28;20436;-81
2021/06/10 06:08:10;;;;;;;0.80;0.70;;;18.30;99.90;;;19.11;100.00;-21199.81;5064286;28;20532;-81
2021/06/10 06:10:40;;;;;;;0.80;0.70;;;18.40;99.90;;;19.25;100.00;-21203.50;5068635;28;20988;-81
2021/06/10 06:13:09;;;;;;;0.80;0.70;;;18.60;99.90;;;19.34;100.00;-21205.97;5085220;28;20920;-80
2021/06/10 06:15:37;;;;;;;0.80;0.70;;;18.70;99.90;;;19.52;100.00;-21210.91;5051833;28;20464;-78
2021/06/10 06:18:08;;;;;;;0.77;0.70;;;18.80;99.90;;;19.64;100.00;-21214.06;5068869;28;20540;-80
2021/06/10 06:20:36;;;;;;;0.70;0.60;;;18.90;99.90;;;19.56;100.00;-21211.84;5053353;28;20455;-80
2021/06/10 06:23:04;;;;;;;0.80;0.70;;;18.90;99.90;;;19.67;100.00;-21214.88;5053301;28;20500;-80
2021/06/10 06:25:32;;;;;;;0.80;0.60;;;19.00;99.90;;;19.93;100.00;-21221.69;5052214;28;20458;-81
2021/06/10 06:28:01;;;;;;;0.80;0.70;;;19.20;99.90;;;20.02;100.00;-21224.16;5051832;28;20460;-81
2021/06/10 06:30:29;;;;;;;0.80;0.60;;;19.30;99.90;;;19.96;100.00;-21222.53;5051618;28;20436;-82
2021/06/10 06:32:56;;;;;;;0.70;0.60;;;19.40;99.90;;;20.20;100.00;-21228.94;5084607;28;20444;-81
2021/06/10 06:35:24;;;;;;;0.80;0.70;;;19.60;99.90;;;20.39;100.00;-21234.00;5085723;28;20445;-80
2021/06/10 06:37:51;;;;;;;0.80;0.63;;;19.70;99.90;;;20.49;100.00;-21236.72;5064937;28;20467;-80
2021/06/10 06:40:25;;;;;;;0.77;0.67;;;19.90;99.90;;;20.63;100.00;-21240.56;5054959;28;20477;-80
2021/06/10 06:42:53;;;;;;;0.80;0.80;;;20.00;99.90;;;20.80;100.00;-21244.91;5063345;28;20967;-82
2021/06/10 06:45:22;;;;;;;0.80;0.60;;;20.20;99.90;;;20.98;100.00;-21249.84;5034399;28;20842;-81
2021/06/10 06:47:49;;;;;;;0.80;0.70;;;20.30;99.90;;;20.95;100.00;-21249.00;5065617;28;20453;-80
2021/06/10 06:50:18;;;;;;;0.80;0.70;;;20.40;99.90;;;21.09;100.00;-21252.84;5055398;28;20955;-82
2021/06/10 06:52:46;;;;;;;1.37;1.27;;;20.60;99.90;;;21.25;100.00;-21257.06;5054592;28;20492;-82
2021/06/10 06:55:14;;;;;;;0.80;0.77;;;20.70;99.90;;;21.38;100.00;-21260.63;5071821;28;20454;-82
2021/06/10 06:57:42;;;;;;;0.80;0.70;;;20.90;99.90;;;21.54;100.00;-21264.84;5073074;28;20427;-83
2021/06/10 07:00:11;;;;;;;0.70;0.60;;;21.00;99.90;;;21.66;100.00;-21268.13;5071537;28;20903;-82
2021/06/10 07:02:40;;;;;;;0.80;0.70;;;21.10;99.90;;;21.78;100.00;-21271.09;5072003;28;20771;-82
2021/06/10 07:05:10;;;;;;;0.80;0.70;;;21.30;99.90;;;21.86;100.00;-21273.28;5076184;28;20427;-83
2021/06/10 07:07:38;;;;;;;1.67;1.57;;;21.40;99.90;;;22.00;100.00;-21277.09;5058975;28;20953;-83
2021/06/10 07:10:07;;;;;;;0.80;0.80;;;21.50;99.90;;;22.17;100.00;-21281.75;5075479;28;20442;-82
2021/06/10 07:12:35;;;;;;;0.80;0.60;;;21.60;99.90;;;22.34;100.00;-21286.09;5075144;28;20777;-82
2021/06/10 07:15:04;;;;;;;0.80;0.60;;;21.80;99.90;;;22.62;100.00;-21293.59;5075005;28;20526;-81
2021/06/10 07:17:35;;;;;;;0.80;0.60;;;22.00;99.90;;;22.66;100.00;-21294.69;5075619;28;20435;-81
2021/06/10 07:20:06;;;;;;;0.80;0.60;;;22.10;99.90;;;22.73;100.00;-21296.44;5074996;28;20455;-79
2021/06/10 07:22:38;;;;;;;0.73;0.60;;;22.30;99.90;;;22.94;100.00;-21302.16;5091596;28;20752;-82
2021/06/10 07:25:08;;;;;;;0.80;0.70;;;22.40;99.90;;;23.17;100.00;-21308.16;5058999;28;20414;-79
2021/06/10 07:27:37;;;;;;;0.70;0.60;;;22.50;99.90;;;22.96;100.00;-21302.72;5071884;28;20452;-81
2021/06/10 07:30:07;;;;;;;0.80;0.60;;;22.50;99.90;;;23.05;100.00;-21305.16;5075177;28;20928;-82
2021/06/10 07:32:38;;;;;;;0.80;0.63;;;22.60;99.90;;;23.19;100.00;-21308.69;5058001;28;20516;-82
2021/06/10 07:35:09;;;;;;;0.70;0.60;;;22.80;99.90;;;23.24;100.00;-21310.19;5074822;28;20806;-83
2021/06/10 07:37:37;;;;;;;0.80;0.63;;;22.90;99.90;;;23.41;100.00;-21314.66;5058440;28;20427;-81
2021/06/10 07:40:06;;;;;;;0.80;0.70;;;23.00;97.30;;;23.54;100.00;-21318.22;5057904;28;20485;-80
2021/06/10 07:42:33;;;;;;;0.80;0.60;;;23.10;94.30;;;23.63;100.00;-21320.53;5075223;28;20432;-81
2021/06/10 07:45:01;;;;;;;0.80;0.70;;;23.30;94.50;;;23.79;100.00;-21324.88;5075028;28;20517;-83
2021/06/10 07:47:29;;;;;;;0.80;0.70;;;23.50;94.40;;;24.09;100.00;-21332.88;5091121;28;20435;-81
2021/06/10 07:49:56;;;;;;;0.80;0.60;;;23.60;92.10;;;24.06;100.00;-21332.06;5058420;28;20901;-82
2021/06/10 07:52:26;;;;;;;0.80;0.63;;;23.80;90.00;;;24.26;100.00;-21337.38;5074204;28;20428;-82
2021/06/10 07:54:53;;;;;;;0.77;0.60;;;23.90;91.00;;;24.41;100.00;-21341.31;5074454;28;20416;-83
2021/06/10 07:57:21;;;;;;;0.73;0.60;;;24.00;79.00;;;24.74;100.00;-21350.00;5057637;28;20447;-82
2021/06/10 07:59:49;;;;;;;0.70;0.60;;;24.30;69.00;;;24.82;100.00;-21352.16;5074778;28;20411;-84
2021/06/10 08:02:39;;;;;;;0.70;0.60;;;24.50;71.10;;;24.86;100.00;-21353.25;5069576;28;20430;-84
2021/06/10 08:05:10;;;;;;;0.70;0.60;;;24.60;72.10;;;25.23;100.00;-21363.03;5071677;28;20466;-81
2021/06/10 08:07:42;;;;;;;0.70;0.50;;;24.70;65.90;;;25.28;100.00;-21364.38;5037837;28;20543;-83
2021/06/10 08:10:13;;;;;;;0.80;0.60;;;24.80;68.30;;;25.30;100.00;-21364.91;5070969;28;20466;-80
2021/06/10 08:12:45;;;;;;;0.70;0.60;;;24.80;60.60;;;25.59;100.00;-21372.50;5070667;28;20565;-83
2021/06/10 08:15:15;;;;;;;0.80;0.70;;;25.00;60.70;;;25.68;100.00;-21374.94;5053667;28;20432;-83
2021/06/10 08:17:43;;;;;;;1.00;0.93;;;25.20;60.30;;;25.75;100.00;-21376.97;5071054;28;20431;-81
2021/06/10 08:20:13;;;;;;;0.80;0.60;;;25.40;55.40;;;26.20;100.00;-21388.75;5055905;28;20417;-84
2021/06/10 08:22:42;;;;;;;0.70;0.60;;;25.50;54.80;;;26.47;100.00;-21396.09;5071176;28;20499;-80
2021/06/10 08:25:12;;;;;;;0.80;0.70;;;25.70;57.50;;;26.13;100.00;-21386.88;5054167;28;20436;-80
2021/06/10 08:27:41;;;;;;;0.70;0.60;;;25.80;55.60;;;26.27;100.00;-21390.66;5054224;28;20797;-81
2021/06/10 08:30:10;;;;;;;0.90;0.70;;;25.80;52.30;;;26.92;100.00;-21407.97;5069877;28;20912;-81
2021/06/10 08:32:42;;;;;;;0.80;0.60;;;26.20;50.10;;;26.65;100.00;-21400.81;5052950;28;20474;-81
2021/06/10 08:35:11;;;;;;;0.70;0.60;;;26.40;48.00;;;27.33;100.00;-21418.81;5054038;28;20440;-82
2021/06/10 08:37:41;;;;;;;0.70;0.60;;;26.70;48.00;;;27.53;100.00;-21423.94;5052027;28;20436;-81
2021/06/10 08:40:10;;;;;;;0.70;0.50;;;27.00;44.50;;;27.89;100.00;-21433.66;5053874;28;20444;-79
2021/06/10 08:42:39;;;;;;;0.70;0.50;;;27.20;38.30;;;28.07;100.00;-21438.25;5053799;28;20467;-81
2021/06/10 08:45:11;;;;;;;0.70;0.50;;;27.40;41.90;;;28.39;100.00;-21446.91;5070023;28;20428;-78
2021/06/10 08:47:41;;;;;;;0.70;0.60;;;27.80;38.20;;;28.69;100.00;-21454.72;5070088;28;20519;-81
2021/06/10 08:50:12;;;;;;;0.70;0.60;;;28.10;44.30;;;28.16;100.00;-21440.69;5064841;28;20518;-81
2021/06/10 08:52:41;;;;;;;0.70;0.50;;;28.10;31.70;;;28.33;100.00;-21445.28;5072825;28;20461;-80
2021/06/10 08:55:12;;;;;;;0.70;0.50;;;28.10;31.60;;;29.21;100.00;-21468.47;5075054;28;20773;-81
2021/06/10 08:57:40;;;;;;;0.70;0.50;;;28.40;36.20;;;30.24;100.00;-21495.66;5057131;28;20500;-79
2021/06/10 09:00:28;;;;;;;0.70;0.50;;;29.00;31.20;;;30.49;100.00;-21502.25;5073291;28;20906;-80
2021/06/10 09:02:58;;;;;;;0.70;0.50;;;29.70;28.00;;;31.75;100.00;-21535.44;5056775;28;20478;-78
2021/06/10 09:05:29;;;;;;;0.70;0.50;;;30.50;26.40;;;32.36;100.00;-21551.25;5073099;28;20404;-78
2021/06/10 09:08:02;;;;;;;0.70;0.50;;;31.30;23.20;;;31.16;100.00;-21519.88;5055878;28;20998;-80
2021/06/10 09:10:34;;;;;;;0.80;0.70;;;31.70;19.30;;;30.44;100.00;-21500.91;5072421;28;20471;-81
2021/06/10 09:13:04;;;;;;;0.73;0.50;;;31.90;16.80;;;30.84;100.00;-21511.41;5056814;28;20435;-80
2021/06/10 09:15:35;;;;;;;0.80;0.50;;;32.10;16.10;;;31.61;100.00;-21531.69;5072923;28;20777;-79
2021/06/10 09:18:04;;;;;;;0.80;0.50;;;32.30;15.80;;;31.36;100.00;-21525.09;5074509;28;20415;-83
2021/06/10 09:20:43;;;;;;;0.80;0.60;;;32.00;13.50;;;30.38;100.00;-21499.16;5073221;28;20431;-81
2021/06/10 09:23:19;;;;;;;0.80;0.60;;;31.70;11.90;;;30.48;100.00;-21501.84;5068100;28;20807;-80
2021/06/10 09:25:58;;;;;;;0.80;0.60;;;31.20;12.70;;;30.70;100.00;-21507.75;5053603;28;20424;-80
2021/06/10 09:28:31;;;;;;;0.90;0.60;;;31.40;12.70;;;32.01;100.00;-21542.03;5054023;28;20423;-79
2021/06/10 09:30:59;;;;;;;0.80;0.50;;;31.70;9.80;;;31.87;100.00;-21538.41;5053131;28;20419;-80
2021/06/10 09:33:39;;;;;;;0.90;0.60;;;32.20;12.70;;;32.29;100.00;-21549.38;5062119;28;20887;-79
2021/06/10 09:36:13;;;;;;;0.80;0.50;;;32.70;9.50;;;33.29;100.00;-21575.66;5074177;28;20796;-82
2021/06/10 09:39:06;;;;;;;0.80;0.50;;;33.70;9.50;;;34.30;100.00;-21602.13;5072248;28;20883;-79
2021/06/10 09:41:34;;;;;;;0.80;0.50;;;34.30;4.30;;;32.91;100.00;-21565.75;5073928;28;20480;-80
2021/06/10 09:44:04;;;;;;;0.80;0.50;;;34.40;3.00;;;34.72;100.00;-21613.22;5072129;28;20907;-79
2021/06/10 09:46:54;;;;;;;0.93;0.83;;;35.00;1.00;;;33.34;100.00;-21577.13;5072535;28;20930;-80
2021/06/10 09:49:26;;;;;;;0.80;0.50;;;34.70;4.80;;;33.00;100.00;-21568.16;5072448;28;20449;-81
2021/06/10 09:51:54;;;;;;;0.80;0.50;;;34.50;1.00;;;34.51;100.00;-21607.59;5072443;28;20423;-80
2021/06/10 09:54:51;;;;;;;0.80;0.50;;;34.80;1.00;;;33.51;100.00;-21581.53;5073793;28;20457;-81
2021/06/10 09:57:19;;;;;;;0.80;0.50;;;35.10;1.00;;;34.46;100.00;-21606.41;5066082;28;20514;-80
2021/06/10 09:59:52;;;;;;;0.80;0.50;;;35.00;1.00;;;34.79;100.00;-21615.09;5067498;28;20500;-82
2021/06/10 10:02:23;;;;;;;0.80;0.50;;;35.20;1.00;;;32.64;100.00;-21558.63;5071546;28;20447;-81
2021/06/10 10:05:06;;;;;;;0.80;0.53;;;34.00;1.00;;;31.24;100.00;-21521.88;5071632;28;20411;-82
2021/06/10 10:07:36;;;;;;;0.80;0.50;;;33.20;1.00;;;31.95;100.00;-21540.53;5062773;28;20975;-81
2021/06/10 10:10:09;;;;;;;0.80;0.50;;;33.30;1.00;;;33.04;100.00;-21569.22;5052391;28;20419;-80
2021/06/10 10:12:40;;;;;;;0.80;0.50;;;33.40;1.00;;;32.82;100.00;-21563.31;5035642;28;20435;-82
2021/06/10 10:15:10;;;;;;;0.80;0.50;;;33.80;4.90;;;33.72;100.00;-21586.88;5061613;28;20445;-82
2021/06/10 10:17:38;;;;;;;0.80;0.50;;;34.20;1.00;;;33.88;100.00;-21591.31;5055415;28;20794;-80
2021/06/10 10:20:11;;;;;;;0.80;0.50;;;34.70;1.00;;;33.89;100.00;-21591.56;5054928;28;20514;-79